createdAt,value
2022-11-14T00:01:15.666Z,11.90
2022-11-14T00:03:43.489Z,11.93
2022-11-14T00:06:11.332Z,11.13
2022-11-14T00:08:39.118Z,13.07
2022-11-14T00:11:09.584Z,8.93
2022-11-14T00:13:38.759Z,12.90
2022-11-14T00:16:06.725Z,11.40
2022-11-14T00:18:34.573Z,11.27
2022-11-14T00:21:02.502Z,12.47
2022-11-14T00:23:30.319Z,11.37
2022-11-14T00:25:58.816Z,11.40
2022-11-14T00:28:26.735Z,14.07
2022-11-14T00:30:56.085Z,12.60
2022-11-14T00:33:24.121Z,11.50
2022-11-14T00:35:54.206Z,10.37
2022-11-14T00:38:22.229Z,10.60
2022-11-14T00:40:52.719Z,10.77
2022-11-14T00:43:20.691Z,10.03
2022-11-14T00:45:49.037Z,12.33
2022-11-14T00:48:18.418Z,13.43
2022-11-14T00:50:46.586Z,13.63
2022-11-14T00:53:14.738Z,13.70
2022-11-14T00:55:43.663Z,10.37
2022-11-14T00:58:11.572Z,15.47
2022-11-14T01:00:39.998Z,12.77
2022-11-14T01:03:07.986Z,14.07
2022-11-14T01:05:42.251Z,13.00
2022-11-14T01:08:10.384Z,13.50
2022-11-14T01:10:41.103Z,14.17
2022-11-14T01:13:09.480Z,11.37
2022-11-14T01:15:41.164Z,12.87
2022-11-14T01:18:09.261Z,10.80
2022-11-14T01:20:39.876Z,12.30
2022-11-14T01:23:08.095Z,14.93
2022-11-14T01:25:36.199Z,13.57
2022-11-14T01:28:07.445Z,13.80
2022-11-14T01:30:35.275Z,12.43
2022-11-14T01:33:03.730Z,14.00
2022-11-14T01:35:32.592Z,12.53
2022-11-14T01:38:02.379Z,14.50
2022-11-14T01:40:30.934Z,13.00
2022-11-14T01:43:27.738Z,12.73
2022-11-14T01:46:01.729Z,14.77
2022-11-14T01:48:36.544Z,14.87
2022-11-14T01:51:15.411Z,14.77
2022-11-14T01:53:45.645Z,12.97
2022-11-14T01:56:18.155Z,11.63
2022-11-14T01:58:51.136Z,12.30
2022-11-14T02:01:19.100Z,11.73
2022-11-14T02:03:51.160Z,13.27
2022-11-14T02:06:24.281Z,17.03
2022-11-14T02:08:53.879Z,17.80
2022-11-14T02:11:21.843Z,14.63
2022-11-14T02:13:49.929Z,14.63
2022-11-14T02:16:17.750Z,13.27
2022-11-14T02:18:45.586Z,12.57
2022-11-14T02:21:14.799Z,15.37
2022-11-14T02:23:42.680Z,12.20
2022-11-14T02:26:10.538Z,13.00
2022-11-14T02:28:38.604Z,14.77
2022-11-14T02:31:06.466Z,13.70
2022-11-14T02:33:34.286Z,12.53
2022-11-14T02:36:02.236Z,12.67
2022-11-14T02:38:32.179Z,18.03
2022-11-14T02:41:01.305Z,17.70
2022-11-14T02:43:29.203Z,13.33
2022-11-14T02:46:00.274Z,13.53
2022-11-14T02:48:32.333Z,14.07
2022-11-14T02:51:00.758Z,15.30
2022-11-14T02:53:28.509Z,14.33
2022-11-14T02:55:57.769Z,13.03
2022-11-14T02:58:25.590Z,12.33
2022-11-14T03:01:19.129Z,13.33
2022-11-14T03:03:41.421Z,17.50
2022-11-14T03:06:09.368Z,14.80
2022-11-14T03:08:37.245Z,17.27
2022-11-14T03:11:07.628Z,16.27
2022-11-14T03:13:35.690Z,14.17
2022-11-14T03:16:07.392Z,14.43
2022-11-14T03:18:35.877Z,17.17
2022-11-14T03:21:07.707Z,13.93
2022-11-14T03:23:35.703Z,13.67
2022-11-14T03:26:03.951Z,14.83
2022-11-14T03:28:33.317Z,15.53
2022-11-14T03:31:01.243Z,16.80
2022-11-14T03:33:29.402Z,13.93
2022-11-14T03:35:57.205Z,17.30
2022-11-14T03:38:25.977Z,17.23
2022-11-14T03:40:54.298Z,15.83
2022-11-14T03:43:22.970Z,19.70
2022-11-14T03:45:52.423Z,17.30
2022-11-14T03:48:20.215Z,15.47
2022-11-14T03:50:48.204Z,15.83
2022-11-14T03:53:16.064Z,16.03
2022-11-14T03:55:44.671Z,15.70
2022-11-14T03:58:12.570Z,15.43
2022-11-14T04:00:40.518Z,14.83
2022-11-14T04:03:09.886Z,19.77
2022-11-14T04:05:37.829Z,19.67
2022-11-14T04:08:06.689Z,17.13
2022-11-14T04:10:34.649Z,19.63
2022-11-14T04:13:02.537Z,17.73
2022-11-14T04:15:30.326Z,15.83
2022-11-14T04:17:58.380Z,16.50
2022-11-14T04:20:28.088Z,17.13
2022-11-14T04:22:55.845Z,20.37
2022-11-14T04:25:23.752Z,16.80
2022-11-14T04:27:51.615Z,17.23
2022-11-14T04:30:19.537Z,15.40
2022-11-14T04:32:48.491Z,15.97
2022-11-14T04:35:16.586Z,15.27
2022-11-14T04:37:45.878Z,14.80
2022-11-14T04:40:13.959Z,16.17
2022-11-14T04:42:41.722Z,16.67
2022-11-14T04:45:10.326Z,20.53
2022-11-14T04:47:40.104Z,18.43
2022-11-14T04:50:09.199Z,16.80
2022-11-14T04:52:37.108Z,15.07
2022-11-14T04:55:06.909Z,16.40
2022-11-14T04:57:34.752Z,17.83
2022-11-14T05:00:02.794Z,19.13
2022-11-14T05:02:32.248Z,17.60
2022-11-14T05:05:00.053Z,23.60
2022-11-14T05:07:27.881Z,16.97
2022-11-14T05:09:55.959Z,22.43
2022-11-14T05:12:25.158Z,15.20
2022-11-14T05:14:52.953Z,24.37
2022-11-14T05:17:21.033Z,18.03
2022-11-14T05:19:48.923Z,19.90
2022-11-14T05:22:16.937Z,20.07
2022-11-14T05:24:44.764Z,21.23
2022-11-14T05:27:12.827Z,20.27
2022-11-14T05:29:42.125Z,20.50
2022-11-14T05:32:15.081Z,17.53
2022-11-14T05:34:44.003Z,19.00
2022-11-14T05:37:11.852Z,21.53
2022-11-14T05:39:39.735Z,17.27
2022-11-14T05:42:07.625Z,18.53
2022-11-14T05:44:35.499Z,18.37
2022-11-14T05:47:04.722Z,18.40
2022-11-14T05:49:32.535Z,23.27
2022-11-14T05:52:00.328Z,17.73
2022-11-14T05:54:28.382Z,21.10
2022-11-14T05:56:56.191Z,23.30
2022-11-14T05:59:24.485Z,19.03
2022-11-14T06:01:52.402Z,19.90
2022-11-14T06:04:21.708Z,20.30
2022-11-14T06:06:49.605Z,19.47
2022-11-14T06:09:17.715Z,20.67
2022-11-14T06:11:45.564Z,19.03
2022-11-14T06:14:13.398Z,17.90
2022-11-14T06:16:41.228Z,22.23
2022-11-14T06:19:09.165Z,24.33
2022-11-14T06:21:38.370Z,17.30
2022-11-14T06:24:07.127Z,18.70
2022-11-14T06:26:35.176Z,19.90
2022-11-14T06:29:03.086Z,21.43
2022-11-14T06:31:31.264Z,19.03
2022-11-14T06:33:59.068Z,22.13
2022-11-14T06:36:27.022Z,26.67
2022-11-14T06:38:56.213Z,20.80
2022-11-14T06:41:24.646Z,18.40
2022-11-14T06:43:54.925Z,18.07
2022-11-14T06:46:23.929Z,19.23
2022-11-14T06:48:52.507Z,19.10
2022-11-14T06:51:20.831Z,18.50
2022-11-14T06:53:48.905Z,22.47
2022-11-14T06:56:20.234Z,17.87
2022-11-14T06:58:50.138Z,18.10
2022-11-14T07:01:20.171Z,22.30
2022-11-14T07:03:48.701Z,21.80
2022-11-14T07:06:19.089Z,19.90
2022-11-14T07:08:47.302Z,19.53
2022-11-14T07:11:22.922Z,19.53
2022-11-14T07:13:52.936Z,19.03
2022-11-14T07:16:21.290Z,21.13
2022-11-14T07:18:49.280Z,21.90
2022-11-14T07:21:17.239Z,20.87
2022-11-14T07:23:45.020Z,24.37
2022-11-14T07:26:13.523Z,20.17
2022-11-14T07:28:42.959Z,19.93
2022-11-14T07:31:14.466Z,17.10
2022-11-14T07:33:43.667Z,21.37
2022-11-14T07:36:12.250Z,20.00
2022-11-14T07:38:41.022Z,19.67
2022-11-14T07:41:10.841Z,17.67
2022-11-14T07:43:38.959Z,17.00
2022-11-14T07:46:09.004Z,20.20
2022-11-14T07:48:38.204Z,19.77
2022-11-14T07:51:08.381Z,19.80
2022-11-14T07:53:36.692Z,18.90
2022-11-14T07:56:06.748Z,21.30
2022-11-14T07:58:36.163Z,18.73
2022-11-14T08:01:05.264Z,18.67
2022-11-14T08:03:33.480Z,21.73
2022-11-14T08:06:03.952Z,25.20
2022-11-14T08:08:32.592Z,19.50
2022-11-14T08:11:01.382Z,23.03
2022-11-14T08:13:32.026Z,28.07
2022-11-14T08:16:01.157Z,25.60
2022-11-14T08:18:29.312Z,35.17
2022-11-14T08:20:57.662Z,31.27
2022-11-14T08:23:26.893Z,32.83
2022-11-14T08:25:54.944Z,36.90
2022-11-14T08:28:22.783Z,29.50
2022-11-14T08:30:50.637Z,35.50
2022-11-14T08:33:18.480Z,25.07
2022-11-14T08:35:46.462Z,24.80
2022-11-14T08:38:14.454Z,21.03
2022-11-14T08:40:45.296Z,21.73
2022-11-14T08:43:13.255Z,18.03
2022-11-14T08:45:41.125Z,21.03
2022-11-14T08:48:09.095Z,19.03
2022-11-14T08:50:36.959Z,19.80
2022-11-14T08:53:04.809Z,19.83
2022-11-14T08:55:32.658Z,20.70
2022-11-14T08:58:01.897Z,19.23
2022-11-14T09:00:29.977Z,19.83
2022-11-14T09:02:57.890Z,13.93
2022-11-14T09:05:27.102Z,23.63
2022-11-14T09:07:55.144Z,23.03
2022-11-14T09:10:24.983Z,22.00
2022-11-14T09:12:56.815Z,22.00
2022-11-14T09:15:26.320Z,20.23
2022-11-14T09:17:54.553Z,20.40
2022-11-14T09:20:28.273Z,30.57
2022-11-14T09:23:00.097Z,26.00
2022-11-14T09:25:30.134Z,19.13
2022-11-14T09:27:58.836Z,16.97
2022-11-14T09:30:28.114Z,21.53
2022-11-14T09:33:00.982Z,20.87
2022-11-14T09:35:32.077Z,20.97
2022-11-14T09:38:03.059Z,19.40
2022-11-14T09:40:32.532Z,21.40
2022-11-14T09:43:14.514Z,23.60
2022-11-14T09:45:49.815Z,21.83
2022-11-14T09:48:21.293Z,23.10
2022-11-14T09:51:01.443Z,24.57
2022-11-14T09:53:34.260Z,24.00
2022-11-14T09:56:02.773Z,23.70
2022-11-14T09:58:39.671Z,25.60
2022-11-14T10:01:17.631Z,25.10
2022-11-14T10:03:54.318Z,26.03
2022-11-14T10:06:31.157Z,26.00
2022-11-14T10:09:19.293Z,25.50
2022-11-14T10:11:54.987Z,24.03
2022-11-14T10:14:47.796Z,29.03
2022-11-14T10:17:35.563Z,22.90
2022-11-14T10:20:15.258Z,22.17
2022-11-14T10:23:03.585Z,21.93
2022-11-14T10:25:44.266Z,22.93
2022-11-14T10:28:33.807Z,24.80
2022-11-14T10:31:08.488Z,26.90
2022-11-14T10:33:51.092Z,23.00
2022-11-14T10:36:27.705Z,23.77
2022-11-14T10:39:03.829Z,18.43
2022-11-14T10:41:55.913Z,17.57
2022-11-14T10:44:29.630Z,21.23
2022-11-14T10:47:03.032Z,22.90
2022-11-14T10:49:39.607Z,18.53
2022-11-14T10:52:14.217Z,16.33
2022-11-14T10:54:47.135Z,19.00
2022-11-14T10:57:18.324Z,15.33
2022-11-14T10:59:47.512Z,17.03
2022-11-14T11:02:16.159Z,14.87
2022-11-14T11:04:47.109Z,14.67
2022-11-14T11:07:42.557Z,17.93
2022-11-14T11:10:39.181Z,15.43
2022-11-14T11:13:09.738Z,15.37
2022-11-14T11:15:42.389Z,13.70
2022-11-14T11:18:27.276Z,14.77
2022-11-14T11:21:09.183Z,16.47
2022-11-14T11:23:38.487Z,15.90
2022-11-14T11:26:09.587Z,13.23
2022-11-14T11:28:38.629Z,12.57
2022-11-14T11:31:08.449Z,13.77
2022-11-14T11:33:37.687Z,11.90
2022-11-14T11:36:13.286Z,12.23
2022-11-14T11:38:42.340Z,10.13
2022-11-14T11:41:52.707Z,14.10
2022-11-14T11:44:14.074Z,10.20
2022-11-14T11:46:48.347Z,15.93
2022-11-14T11:49:20.597Z,11.00
2022-11-14T11:51:56.923Z,13.43
2022-11-14T11:54:31.287Z,15.27
2022-11-14T11:57:03.427Z,12.73
2022-11-14T11:59:36.511Z,14.87
2022-11-14T12:02:18.421Z,12.30
2022-11-14T12:04:46.551Z,13.63
2022-11-14T12:07:20.340Z,13.20
2022-11-14T12:10:09.899Z,15.43
2022-11-14T12:13:04.200Z,11.60
2022-11-14T12:15:43.686Z,11.87
2022-11-14T12:18:24.460Z,11.67
2022-11-14T12:21:06.247Z,17.83
2022-11-14T12:23:57.899Z,14.47
2022-11-14T12:26:42.089Z,15.73
2022-11-14T12:29:32.671Z,19.70
2022-11-14T12:32:07.089Z,13.53
2022-11-14T12:34:41.783Z,14.97
2022-11-14T12:37:15.700Z,16.47
2022-11-14T12:39:57.746Z,14.20
2022-11-14T12:42:27.145Z,16.77
2022-11-14T12:44:55.004Z,18.30
2022-11-14T12:47:24.784Z,14.00
2022-11-14T12:50:27.052Z,17.27
2022-11-14T12:52:55.151Z,13.00
2022-11-14T12:56:05.207Z,15.30
2022-11-14T12:58:48.921Z,19.53
2022-11-14T13:01:51.662Z,15.37
2022-11-14T13:04:29.962Z,15.70
2022-11-14T13:07:15.083Z,15.13
2022-11-14T13:10:05.164Z,12.83
2022-11-14T13:12:53.566Z,12.17
2022-11-14T13:15:49.714Z,11.87
2022-11-14T13:18:42.580Z,12.97
2022-11-14T13:21:45.129Z,12.57
2022-11-14T13:24:16.254Z,13.13
2022-11-14T13:26:51.941Z,12.80
2022-11-14T13:30:00.090Z,14.03
2022-11-14T13:33:07.769Z,11.77
2022-11-14T13:35:48.604Z,12.67
2022-11-14T13:39:01.099Z,11.97
2022-11-14T13:42:15.946Z,14.70
2022-11-14T13:45:44.177Z,11.40
2022-11-14T13:48:51.845Z,15.30
2022-11-14T13:54:17.412Z,13.30
2022-11-14T13:57:10.145Z,15.07
2022-11-14T13:59:53.903Z,12.47
2022-11-14T14:02:44.092Z,12.93
2022-11-14T14:05:22.476Z,16.43
2022-11-14T14:08:04.977Z,14.23
2022-11-14T14:10:41.588Z,15.80
2022-11-14T14:13:22.308Z,13.27
2022-11-14T14:16:04.133Z,14.67
2022-11-14T14:18:46.972Z,15.23
2022-11-14T14:21:28.200Z,17.73
2022-11-14T14:24:08.098Z,16.50
2022-11-14T14:26:55.461Z,15.47
2022-11-14T14:29:28.788Z,15.50
2022-11-14T14:32:08.460Z,17.60
2022-11-14T14:34:36.841Z,19.37
2022-11-14T14:37:05.341Z,20.77
2022-11-14T14:39:34.918Z,18.07
2022-11-14T14:42:03.626Z,17.87
2022-11-14T14:44:38.290Z,16.50
2022-11-14T14:47:16.246Z,16.50
2022-11-14T14:49:45.125Z,19.90
2022-11-14T14:52:23.571Z,17.80
2022-11-14T14:54:57.384Z,16.37
2022-11-14T14:57:25.972Z,17.77
2022-11-14T15:00:00.585Z,16.33
2022-11-14T15:02:29.944Z,15.50
2022-11-14T15:05:00.660Z,16.63
2022-11-14T15:07:30.638Z,19.13
2022-11-14T15:10:02.279Z,18.53
2022-11-14T15:12:32.170Z,25.57
2022-11-14T15:15:02.697Z,15.57
2022-11-14T15:17:35.684Z,18.03
2022-11-14T15:20:04.688Z,17.00
2022-11-14T15:22:33.691Z,17.60
2022-11-14T15:25:23.923Z,17.90
2022-11-14T15:27:54.626Z,17.07
2022-11-14T15:30:25.404Z,15.03
2022-11-14T15:32:55.010Z,18.23
2022-11-14T15:35:29.395Z,17.07
2022-11-14T15:38:36.673Z,17.33
2022-11-14T15:41:21.629Z,19.00
2022-11-14T15:43:53.147Z,20.60
2022-11-14T15:46:38.866Z,19.43
2022-11-14T15:49:12.174Z,21.23
2022-11-14T15:51:43.657Z,17.00
2022-11-14T15:54:23.927Z,19.67
2022-11-14T15:56:54.058Z,17.57
2022-11-14T15:59:22.156Z,19.07
2022-11-14T16:01:53.730Z,18.93
2022-11-14T16:04:24.331Z,16.20
2022-11-14T16:06:52.241Z,17.63
2022-11-14T16:09:22.195Z,18.10
2022-11-14T16:11:50.291Z,22.37
2022-11-14T16:14:19.531Z,17.97
2022-11-14T16:16:47.414Z,17.37
2022-11-14T16:19:17.406Z,20.50
2022-11-14T16:21:45.762Z,20.10
2022-11-14T16:24:17.938Z,18.60
2022-11-14T16:26:46.308Z,17.00
2022-11-14T16:29:15.130Z,22.57
2022-11-14T16:31:45.332Z,18.47
2022-11-14T16:34:19.348Z,18.40
2022-11-14T16:36:48.670Z,19.47
2022-11-14T16:39:16.796Z,22.37
2022-11-14T16:41:44.826Z,17.63
2022-11-14T16:44:17.785Z,17.03
2022-11-14T16:46:47.590Z,21.30
2022-11-14T16:49:17.324Z,19.40
2022-11-14T16:51:49.839Z,20.57
2022-11-14T16:54:18.482Z,18.40
2022-11-14T16:56:46.380Z,18.27
2022-11-14T16:59:14.884Z,25.47
2022-11-14T17:01:43.249Z,22.57
2022-11-14T17:04:13.091Z,17.03
2022-11-14T17:06:40.961Z,19.50
2022-11-14T17:09:09.074Z,18.83
2022-11-14T17:11:36.884Z,18.87
2022-11-14T17:14:04.946Z,22.20
2022-11-14T17:16:33.102Z,22.93
2022-11-14T17:19:01.418Z,21.83
2022-11-14T17:21:30.785Z,19.83
2022-11-14T17:24:01.417Z,21.90
2022-11-14T17:26:29.571Z,20.00
2022-11-14T17:28:57.416Z,19.47
2022-11-14T17:31:25.267Z,21.43
2022-11-14T17:33:54.618Z,18.67
2022-11-14T17:36:23.238Z,17.90
2022-11-14T17:38:52.741Z,19.63
2022-11-14T17:41:20.942Z,24.07
2022-11-14T17:43:52.838Z,20.17
2022-11-14T17:46:21.078Z,20.17
2022-11-14T17:48:49.058Z,19.83
2022-11-14T17:51:17.777Z,17.37
2022-11-14T17:53:45.577Z,19.70
2022-11-14T17:56:17.795Z,17.83
2022-11-14T17:58:46.818Z,19.53
2022-11-14T18:01:17.026Z,19.53
2022-11-14T18:03:44.994Z,18.33
2022-11-14T18:06:14.674Z,18.40
2022-11-14T18:08:42.846Z,18.27
2022-11-14T18:11:12.984Z,19.03
2022-11-14T18:13:42.498Z,17.67
2022-11-14T18:16:13.536Z,18.47
2022-11-14T18:18:42.861Z,16.90
2022-11-14T18:21:12.016Z,18.27
2022-11-14T18:23:39.915Z,16.03
2022-11-14T18:26:11.982Z,17.43
2022-11-14T18:28:40.107Z,16.40
2022-11-14T18:31:11.017Z,17.37
2022-11-14T18:33:39.425Z,19.17
2022-11-14T18:36:10.318Z,15.77
2022-11-14T18:38:38.436Z,17.17
2022-11-14T18:41:10.014Z,15.37
2022-11-14T18:43:37.860Z,15.97
2022-11-14T18:46:07.665Z,16.50
2022-11-14T18:48:38.273Z,16.10
2022-11-14T18:51:07.941Z,16.97
2022-11-14T18:53:37.046Z,19.60
2022-11-14T18:56:05.900Z,15.53
2022-11-14T18:58:35.987Z,15.33
2022-11-14T19:01:10.923Z,16.03
2022-11-14T19:03:40.316Z,13.20
2022-11-14T19:06:09.909Z,14.33
2022-11-14T19:08:38.022Z,16.37
2022-11-14T19:11:08.085Z,17.37
2022-11-14T19:13:36.208Z,15.90
2022-11-14T19:16:04.707Z,17.73
2022-11-14T19:18:33.844Z,16.43
2022-11-14T19:21:06.649Z,14.70
2022-11-14T19:23:34.778Z,15.67
2022-11-14T19:26:03.475Z,14.20
2022-11-14T19:28:31.465Z,14.00
2022-11-14T19:31:03.052Z,16.30
2022-11-14T19:33:31.650Z,13.27
2022-11-14T19:36:05.314Z,11.83
2022-11-14T19:38:34.503Z,17.57
2022-11-14T19:41:07.931Z,12.43
2022-11-14T19:43:35.894Z,14.70
2022-11-14T19:46:04.594Z,11.97
2022-11-14T19:48:32.920Z,15.83
2022-11-14T19:51:05.407Z,11.53
2022-11-14T19:53:37.088Z,12.53
2022-11-14T19:56:07.555Z,13.10
2022-11-14T19:58:37.603Z,14.43
2022-11-14T20:01:07.964Z,13.37
2022-11-14T20:03:36.984Z,12.07
2022-11-14T20:06:05.942Z,15.40
2022-11-14T20:08:36.990Z,14.17
2022-11-14T20:11:06.789Z,15.10
2022-11-14T20:13:36.811Z,13.83
2022-11-14T20:16:09.804Z,13.40
2022-11-14T20:18:37.801Z,14.40
2022-11-14T20:21:06.470Z,14.43
2022-11-14T20:23:36.557Z,17.30
2022-11-14T20:26:09.943Z,15.07
2022-11-14T20:28:39.475Z,14.40
2022-11-14T20:31:10.812Z,15.10
2022-11-14T20:33:41.496Z,14.83
2022-11-14T20:36:13.432Z,13.30
2022-11-14T20:38:44.403Z,13.37
2022-11-14T20:41:13.065Z,14.93
2022-11-14T20:43:41.860Z,16.47
2022-11-14T20:46:13.611Z,14.73
2022-11-14T20:48:42.746Z,15.67
2022-11-14T20:51:14.127Z,13.17
2022-11-14T20:53:44.247Z,17.43
2022-11-14T20:56:13.727Z,16.83
2022-11-14T20:58:42.352Z,15.23
2022-11-14T21:01:11.085Z,15.30
2022-11-14T21:03:39.384Z,12.93
2022-11-14T21:06:08.384Z,15.07
2022-11-14T21:08:37.779Z,13.57
2022-11-14T21:11:09.313Z,14.67
2022-11-14T21:13:55.882Z,13.80
2022-11-14T21:16:26.049Z,16.00
2022-11-14T21:18:54.853Z,14.13
2022-11-14T21:21:25.000Z,15.93
2022-11-14T21:23:53.205Z,16.83
2022-11-14T21:26:24.558Z,16.33
2022-11-14T21:28:55.186Z,16.03
2022-11-14T21:31:24.960Z,14.07
2022-11-14T21:33:56.580Z,17.13
2022-11-14T21:39:15.248Z,15.07
2022-11-14T21:41:46.053Z,16.73
2022-11-14T21:44:16.559Z,15.20
2022-11-14T21:46:47.121Z,13.93
2022-11-14T21:49:15.596Z,14.37
2022-11-14T21:51:43.496Z,14.53
2022-11-14T21:54:11.627Z,12.83
2022-11-14T21:56:39.596Z,12.17
2022-11-14T21:59:15.534Z,15.80
2022-11-14T22:02:02.648Z,13.80
2022-11-14T22:04:31.330Z,13.07
2022-11-14T22:06:59.872Z,13.97
2022-11-14T22:09:28.531Z,13.80
2022-11-14T22:11:56.840Z,12.47
2022-11-14T22:14:26.453Z,12.13
2022-11-14T22:16:54.285Z,14.10
2022-11-14T22:19:22.176Z,11.80
2022-11-14T22:21:49.938Z,12.90
2022-11-14T22:24:17.931Z,11.40
2022-11-14T22:26:45.795Z,16.10
2022-11-14T22:29:13.822Z,15.83
2022-11-14T22:31:43.027Z,13.17
2022-11-14T22:34:12.455Z,14.27
2022-11-14T22:36:40.310Z,13.60
2022-11-14T22:39:08.616Z,13.13
2022-11-14T22:41:36.732Z,11.77
2022-11-14T22:44:04.525Z,13.53
2022-11-14T22:46:32.306Z,11.70
2022-11-14T22:49:03.948Z,13.60
2022-11-14T22:51:31.898Z,10.73
2022-11-14T22:54:00.359Z,12.47
2022-11-14T22:56:30.447Z,11.07
2022-11-14T22:59:00.649Z,11.93
2022-11-14T23:01:31.162Z,12.40
2022-11-14T23:04:02.056Z,13.70
2022-11-14T23:06:31.545Z,11.77
2022-11-14T23:08:59.864Z,12.57
2022-11-14T23:11:29.116Z,11.70
2022-11-14T23:13:59.264Z,13.00
2022-11-14T23:16:28.897Z,11.50
2022-11-14T23:18:59.010Z,11.03
2022-11-14T23:21:30.451Z,11.07
2022-11-14T23:23:59.783Z,9.43
2022-11-14T23:26:28.953Z,13.47
2022-11-14T23:28:57.231Z,11.13
2022-11-14T23:31:25.963Z,11.63
2022-11-14T23:33:55.160Z,10.93
2022-11-14T23:36:23.463Z,10.50
2022-11-14T23:38:54.480Z,10.70
2022-11-14T23:41:25.508Z,12.23
2022-11-14T23:43:53.944Z,12.43
2022-11-14T23:46:21.785Z,11.77
2022-11-14T23:48:50.822Z,11.57
2022-11-14T23:51:18.789Z,14.00
2022-11-14T23:53:46.872Z,9.03
2022-11-14T23:56:16.327Z,12.33
2022-11-14T23:58:44.190Z,10.43
